Time,TemperatureF,DewpointF,PressureIn,WindDirection,WindDirectionDegrees,WindSpeedMPH,WindSpeedGustMPH,Humidity,HourlyPrecipIn,Conditions,Clouds,dailyrainin,SolarRadiationWatts/m^2,SoftwareType,DateUTC
2013-01-16 00:00:00,39.0,20.5,30.13,WNW,284,4.0,0.0,47,0.00,,,0.00,0,WeatherTracker,2013-01-16 07:00:00,
2013-01-16 00:10:00,39.3,20.8,30.13,WNW,294,5.0,0.0,47,0.00,,,0.00,0,WeatherTracker,2013-01-16 07:10:00,
2013-01-16 00:20:00,39.0,21.5,30.12,West,275,5.0,0.0,49,0.00,,,0.00,0,WeatherTracker,2013-01-16 07:20:00,
2013-01-16 00:30:00,37.9,21.4,30.13,NW,306,2.0,0.0,51,0.00,,,0.00,0,WeatherTracker,2013-01-16 07:30:00,
2013-01-16 00:40:00,36.7,21.6,30.13,WNW,284,0.0,0.0,54,0.00,,,0.00,0,WeatherTracker,2013-01-16 07:40:00,
2013-01-16 00:50:00,33.3,21.3,30.12,ESE,104,2.0,0.0,61,0.00,,,0.00,0,WeatherTracker,2013-01-16 07:50:00,
2013-01-16 01:00:00,31.1,21.1,30.12,WSW,258,3.0,0.0,66,0.00,,,0.00,0,WeatherTracker,2013-01-16 08:00:00,
2013-01-16 01:10:00,30.3,20.7,30.11,West,260,1.0,0.0,67,0.00,,,0.00,0,WeatherTracker,2013-01-16 08:10:00,
2013-01-16 01:20:00,29.8,20.9,30.11,West,259,2.0,0.0,69,0.00,,,0.00,0,WeatherTracker,2013-01-16 08:20:00,
2013-01-16 01:30:00,29.0,20.5,30.11,West,259,0.0,0.0,70,0.00,,,0.00,0,WeatherTracker,2013-01-16 08:30:00,
2013-01-16 01:40:00,28.2,20.0,30.11,ESE,123,0.0,0.0,71,0.00,,,0.00,0,WeatherTracker,2013-01-16 08:40:00,
2013-01-16 01:50:00,28.0,20.5,30.11,ESE,114,0.0,0.0,73,0.00,,,0.00,0,WeatherTracker,2013-01-16 08:50:00,
2013-01-16 02:00:00,27.7,20.2,30.12,South,178,0.0,0.0,73,0.00,,,0.00,0,WeatherTracker,2013-01-16 09:00:00,
2013-01-16 02:10:00,27.2,20.0,30.12,South,180,0.0,0.0,74,0.00,,,0.00,0,WeatherTracker,2013-01-16 09:10:00,
2013-01-16 02:20:00,26.7,20.2,30.13,WSW,250,6.0,0.0,76,0.00,,,0.00,0,WeatherTracker,2013-01-16 09:20:00,
2013-01-16 02:30:00,27.8,20.6,30.13,South,185,0.0,0.0,74,0.00,,,0.00,0,WeatherTracker,2013-01-16 09:30:00,
2013-01-16 02:40:00,29.4,20.8,30.13,West,275,0.0,0.0,70,0.00,,,0.00,0,WeatherTracker,2013-01-16 09:40:00,
2013-01-16 02:50:00,33.5,21.5,30.13,NNW,334,0.0,0.0,61,0.00,,,0.00,0,WeatherTracker,2013-01-16 09:50:00,
2013-01-16 03:00:00,36.9,21.4,30.13,West,281,0.0,0.0,53,0.00,,,0.00,0,WeatherTracker,2013-01-16 10:00:00,
2013-01-16 03:10:00,37.8,21.3,30.12,WNW,298,3.0,0.0,51,0.00,,,0.00,0,WeatherTracker,2013-01-16 10:10:00,
2013-01-16 03:20:00,38.9,20.4,30.12,NW,309,4.0,0.0,47,0.00,,,0.00,0,WeatherTracker,2013-01-16 10:20:00,
2013-01-16 03:30:00,39.1,20.6,30.12,NW,311,1.0,0.0,47,0.00,,,0.00,0,WeatherTracker,2013-01-16 10:30:00,
2013-01-16 03:40:00,38.9,19.9,30.12,WNW,302,1.0,0.0,46,0.00,,,0.00,0,WeatherTracker,2013-01-16 10:40:00,
2013-01-16 03:50:00,38.9,20.4,30.12,NW,323,0.0,0.0,47,0.00,,,0.00,0,WeatherTracker,2013-01-16 10:50:00,
2013-01-16 04:00:00,38.5,19.5,30.11,WNW,292,1.0,0.0,46,0.00,,,0.00,0,WeatherTracker,2013-01-16 11:00:00,
2013-01-16 04:10:00,39.1,19.6,30.11,WNW,292,4.0,0.0,45,0.00,,,0.00,0,WeatherTracker,2013-01-16 11:10:00,
2013-01-16 04:20:00,40.4,19.1,30.10,West,273,7.0,0.0,42,0.00,,,0.00,0,WeatherTracker,2013-01-16 11:20:00,
2013-01-16 04:30:00,41.4,18.9,30.10,West,278,6.0,0.0,40,0.00,,,0.00,0,WeatherTracker,2013-01-16 11:30:00,
2013-01-16 04:40:00,41.5,19.0,30.10,WNW,290,2.0,0.0,40,0.00,,,0.00,0,WeatherTracker,2013-01-16 11:40:00,
2013-01-16 04:50:00,41.8,18.7,30.09,West,267,7.0,0.0,39,0.00,,,0.00,0,WeatherTracker,2013-01-16 11:50:00,
2013-01-16 05:00:00,41.7,18.6,30.09,West,260,14.0,0.0,39,0.00,,,0.00,0,WeatherTracker,2013-01-16 12:00:00,
2013-01-16 05:10:00,41.7,18.6,30.09,West,265,7.0,0.0,39,0.00,,,0.00,0,WeatherTracker,2013-01-16 12:10:00,
2013-01-16 05:20:00,41.6,18.5,30.09,West,267,4.0,0.0,39,0.00,,,0.00,0,WeatherTracker,2013-01-16 12:20:00,
2013-01-16 05:30:00,40.8,18.9,30.09,WNW,290,2.0,0.0,41,0.00,,,0.00,0,WeatherTracker,2013-01-16 12:30:00,
2013-01-16 05:40:00,39.8,19.1,30.09,NW,306,2.0,0.0,43,0.00,,,0.00,0,WeatherTracker,2013-01-16 12:40:00,
2013-01-16 05:50:00,39.3,19.2,30.09,NW,318,2.0,0.0,44,0.00,,,0.00,0,WeatherTracker,2013-01-16 12:50:00,
2013-01-16 06:00:00,38.7,19.2,30.09,NW,309,3.0,0.0,45,0.00,,,0.00,0,WeatherTracker,2013-01-16 13:00:00,
2013-01-16 06:10:00,38.4,18.9,30.09,NE,51,2.0,0.0,45,0.00,,,0.00,0,WeatherTracker,2013-01-16 13:10:00,
2013-01-16 06:20:00,35.5,18.7,30.10,ESE,107,3.0,0.0,50,0.00,,,0.00,0,WeatherTracker,2013-01-16 13:20:00,
2013-01-16 06:30:00,32.7,18.3,30.10,ESE,103,0.0,0.0,55,0.00,,,0.00,0,WeatherTracker,2013-01-16 13:30:00,
2013-01-16 06:40:00,31.5,18.4,30.10,SE,142,0.0,0.0,58,0.00,,,0.00,0,WeatherTracker,2013-01-16 13:40:00,
2013-01-16 06:50:00,30.7,18.1,30.10,SE,144,0.0,0.0,59,0.00,,,0.00,0,WeatherTracker,2013-01-16 13:50:00,
2013-01-16 07:00:00,33.7,19.3,30.11,WNW,286,3.0,0.0,55,0.00,,,0.00,0,WeatherTracker,2013-01-16 14:00:00,
2013-01-16 07:10:00,37.5,18.6,30.11,North,9,3.0,0.0,46,0.00,,,0.00,0,WeatherTracker,2013-01-16 14:10:00,
2013-01-16 07:20:00,38.3,18.3,30.12,NW,318,4.0,0.0,44,0.00,,,0.00,0,WeatherTracker,2013-01-16 14:20:00,
2013-01-16 07:30:00,38.9,18.3,30.12,NW,318,3.0,0.0,43,0.00,,,0.00,0,WeatherTracker,2013-01-16 14:30:00,
2013-01-16 07:40:00,38.7,17.6,30.12,NW,308,5.0,0.0,42,0.00,,,0.00,0,WeatherTracker,2013-01-16 14:40:00,
2013-01-16 07:50:00,38.7,17.6,30.13,WNW,296,5.0,0.0,42,0.00,,,0.00,5,WeatherTracker,2013-01-16 14:50:00,
2013-01-16 08:00:00,39.3,16.4,30.14,WNW,291,8.0,0.0,39,0.00,,,0.00,7,WeatherTracker,2013-01-16 15:00:00,
2013-01-16 08:10:00,39.2,16.3,30.14,NNW,333,8.0,0.0,39,0.00,,,0.00,14,WeatherTracker,2013-01-16 15:10:00,
2013-01-16 08:20:00,40.4,14.9,30.14,WNW,289,8.0,0.0,35,0.00,,,0.00,33,WeatherTracker,2013-01-16 15:20:00,
2013-01-16 08:30:00,41.1,14.2,30.14,WNW,287,8.0,0.0,33,0.00,,,0.00,62,WeatherTracker,2013-01-16 15:30:00,
2013-01-16 08:40:00,41.5,13.1,30.15,WNW,290,4.0,0.0,31,0.00,,,0.00,62,WeatherTracker,2013-01-16 15:40:00,
2013-01-16 08:50:00,41.9,12.8,30.15,West,263,10.0,0.0,30,0.00,,,0.00,111,WeatherTracker,2013-01-16 15:50:00,
2013-01-16 09:00:00,41.9,13.5,30.16,West,271,6.0,0.0,31,0.00,,,0.00,105,WeatherTracker,2013-01-16 16:00:00,
2013-01-16 09:10:00,42.2,13.0,30.16,WNW,293,8.0,0.0,30,0.00,,,0.00,84,WeatherTracker,2013-01-16 16:10:00,
2013-01-16 09:20:00,42.6,11.0,30.16,West,275,14.0,0.0,27,0.00,,,0.00,172,WeatherTracker,2013-01-16 16:20:00,
2013-01-16 09:30:00,42.9,11.2,30.16,West,267,12.0,0.0,27,0.00,,,0.00,116,WeatherTracker,2013-01-16 16:30:00,
2013-01-16 09:40:00,42.9,11.2,30.17,NW,325,7.0,0.0,27,0.00,,,0.00,90,WeatherTracker,2013-01-16 16:40:00,
2013-01-16 09:50:00,43.6,11.9,30.18,WNW,293,12.0,0.0,27,0.00,,,0.00,315,WeatherTracker,2013-01-16 16:50:00,
2013-01-16 10:00:00,44.0,11.3,30.17,NW,323,8.0,0.0,26,0.00,,,0.00,346,WeatherTracker,2013-01-16 17:00:00,
2013-01-16 10:10:00,43.7,11.1,30.18,WNW,294,10.0,0.0,26,0.00,,,0.00,341,WeatherTracker,2013-01-16 17:10:00,
2013-01-16 10:20:00,43.5,11.8,30.17,West,265,11.0,0.0,27,0.00,,,0.00,153,WeatherTracker,2013-01-16 17:20:00,
2013-01-16 10:30:00,44.0,11.3,30.18,WSW,254,14.0,0.0,26,0.00,,,0.00,237,WeatherTracker,2013-01-16 17:30:00,
2013-01-16 10:40:00,43.9,11.3,30.17,West,267,7.0,0.0,26,0.00,,,0.00,276,WeatherTracker,2013-01-16 17:40:00,
2013-01-16 10:50:00,43.8,12.0,30.17,West,281,6.0,0.0,27,0.00,,,0.00,243,WeatherTracker,2013-01-16 17:50:00,
2013-01-16 11:00:00,43.6,11.9,30.18,WSW,256,8.0,0.0,27,0.00,,,0.00,257,WeatherTracker,2013-01-16 18:00:00,
2013-01-16 11:10:00,43.8,12.0,30.18,West,269,8.0,0.0,27,0.00,,,0.00,346,WeatherTracker,2013-01-16 18:10:00,
2013-01-16 11:20:00,43.8,12.0,30.18,WNW,299,10.0,0.0,27,0.00,,,0.00,376,WeatherTracker,2013-01-16 18:20:00,
2013-01-16 11:30:00,43.9,12.9,30.18,NNW,336,8.0,0.0,28,0.00,,,0.00,445,WeatherTracker,2013-01-16 18:30:00,
2013-01-16 11:40:00,43.8,12.8,30.18,NW,317,7.0,0.0,28,0.00,,,0.00,418,WeatherTracker,2013-01-16 18:40:00,
2013-01-16 11:50:00,43.6,13.5,30.18,West,278,12.0,0.0,29,0.00,,,0.00,260,WeatherTracker,2013-01-16 18:50:00,
2013-01-16 12:00:00,43.5,12.6,30.17,NW,311,9.0,0.0,28,0.00,,,0.00,297,WeatherTracker,2013-01-16 19:00:00,
2013-01-16 12:10:00,43.4,14.1,30.16,WNW,290,14.0,0.0,30,0.00,,,0.00,367,WeatherTracker,2013-01-16 19:10:00,
2013-01-16 12:20:00,43.5,12.6,30.16,WNW,300,7.0,0.0,28,0.00,,,0.00,183,WeatherTracker,2013-01-16 19:20:00,
2013-01-16 12:30:00,43.5,12.6,30.16,West,273,7.0,0.0,28,0.00,,,0.00,385,WeatherTracker,2013-01-16 19:30:00,
2013-01-16 12:40:00,43.5,13.4,30.15,WSW,251,12.0,0.0,29,0.00,,,0.00,367,WeatherTracker,2013-01-16 19:40:00,
2013-01-16 12:50:00,43.3,14.0,30.15,WSW,254,9.0,0.0,30,0.00,,,0.00,302,WeatherTracker,2013-01-16 19:50:00,
2013-01-16 12:58:00,43.3,14.0,30.15,West,266,12.0,0.0,30,0.00,,,0.00,325,WeatherTracker,2013-01-16 19:58:00,
2013-01-16 13:10:00,43.2,13.1,30.14,West,269,6.0,0.0,29,0.00,,,0.00,353,WeatherTracker,2013-01-16 20:10:00,
2013-01-16 13:20:00,43.2,13.9,30.15,NW,307,11.0,0.0,30,0.00,,,0.00,278,WeatherTracker,2013-01-16 20:20:00,
2013-01-16 13:30:00,43.1,13.8,30.14,West,268,11.0,0.0,30,0.00,,,0.00,218,WeatherTracker,2013-01-16 20:30:00,
2013-01-16 13:40:00,43.1,14.5,30.15,West,261,6.0,0.0,31,0.00,,,0.00,272,WeatherTracker,2013-01-16 20:40:00,
2013-01-16 13:50:00,43.3,16.2,30.14,NW,315,5.0,0.0,33,0.00,,,0.00,429,WeatherTracker,2013-01-16 20:50:00,
2013-01-16 14:00:00,43.1,15.3,30.15,West,277,7.0,0.0,32,0.00,,,0.00,408,WeatherTracker,2013-01-16 21:00:00,
2013-01-16 14:10:00,43.2,15.4,30.16,WNW,295,12.0,0.0,32,0.00,,,0.00,403,WeatherTracker,2013-01-16 21:10:00,
2013-01-16 14:20:00,43.0,15.2,30.16,West,273,16.0,0.0,32,0.00,,,0.00,144,WeatherTracker,2013-01-16 21:20:00,
2013-01-16 14:30:00,42.8,15.7,30.16,West,276,3.0,0.0,33,0.00,,,0.00,144,WeatherTracker,2013-01-16 21:30:00,
2013-01-16 14:40:00,42.7,14.9,30.16,WNW,283,6.0,0.0,32,0.00,,,0.00,172,WeatherTracker,2013-01-16 21:40:00,
2013-01-16 14:50:00,42.7,14.9,30.17,NW,317,5.0,0.0,32,0.00,,,0.00,316,WeatherTracker,2013-01-16 21:50:00,
2013-01-16 15:00:00,42.8,14.3,30.17,West,263,9.0,0.0,31,0.00,,,0.00,216,WeatherTracker,2013-01-16 22:00:00,
2013-01-16 15:10:00,42.5,15.4,30.17,West,281,8.0,0.0,33,0.00,,,0.00,181,WeatherTracker,2013-01-16 22:10:00,
2013-01-16 15:20:00,42.4,16.0,30.18,West,276,6.0,0.0,34,0.00,,,0.00,142,WeatherTracker,2013-01-16 22:20:00,
2013-01-16 15:30:00,42.2,14.5,30.17,West,281,7.0,0.0,32,0.00,,,0.00,128,WeatherTracker,2013-01-16 22:30:00,
2013-01-16 15:40:00,41.9,15.6,30.18,West,273,7.0,0.0,34,0.00,,,0.00,79,WeatherTracker,2013-01-16 22:40:00,
2013-01-16 15:50:00,41.6,15.3,30.18,West,281,4.0,0.0,34,0.00,,,0.00,65,WeatherTracker,2013-01-16 22:50:00,
2013-01-16 16:00:00,41.1,15.6,30.18,West,267,9.0,0.0,35,0.00,,,0.00,51,WeatherTracker,2013-01-16 23:00:00,
2013-01-16 16:10:00,40.8,15.3,30.18,West,279,3.0,0.0,35,0.00,,,0.00,40,WeatherTracker,2013-01-16 23:10:00,
2013-01-16 16:20:00,40.5,15.0,30.19,WNW,295,5.0,0.0,35,0.00,,,0.00,30,WeatherTracker,2013-01-16 23:20:00,
2013-01-16 16:30:00,40.2,15.4,30.19,WNW,289,11.0,0.0,36,0.00,,,0.00,21,WeatherTracker,2013-01-16 23:30:00,
2013-01-16 16:40:00,40.0,15.2,30.20,WNW,284,7.0,0.0,36,0.00,,,0.00,12,WeatherTracker,2013-01-16 23:40:00,
2013-01-16 16:50:00,39.9,15.1,30.20,WNW,303,0.0,0.0,36,0.00,,,0.00,7,WeatherTracker,2013-01-16 23:50:00,
2013-01-16 17:00:00,39.4,14.7,30.21,WNW,299,7.0,0.0,36,0.00,,,0.00,7,WeatherTracker,2013-01-17 00:00:00,
2013-01-16 17:10:00,39.8,14.4,30.21,West,278,12.0,0.0,35,0.00,,,0.00,0,WeatherTracker,2013-01-17 00:10:00,
2013-01-16 17:20:00,39.8,13.7,30.21,West,273,2.0,0.0,34,0.00,,,0.00,0,WeatherTracker,2013-01-17 00:20:00,
2013-01-16 17:30:00,39.8,13.1,30.22,WNW,301,4.0,0.0,33,0.00,,,0.00,0,WeatherTracker,2013-01-17 00:30:00,
2013-01-16 17:40:00,39.9,13.2,30.22,WSW,258,3.0,0.0,33,0.00,,,0.00,0,WeatherTracker,2013-01-17 00:40:00,
2013-01-16 17:50:00,40.1,13.3,30.23,West,275,8.0,0.0,33,0.00,,,0.00,0,WeatherTracker,2013-01-17 00:50:00,
2013-01-16 18:00:00,39.9,13.2,30.23,West,263,6.0,0.0,33,0.00,,,0.00,0,WeatherTracker,2013-01-17 01:00:00,
2013-01-16 18:10:00,39.8,13.1,30.23,West,267,2.0,0.0,33,0.00,,,0.00,0,WeatherTracker,2013-01-17 01:10:00,
2013-01-16 18:20:00,39.2,13.2,30.24,West,259,2.0,0.0,34,0.00,,,0.00,0,WeatherTracker,2013-01-17 01:20:00,
2013-01-16 18:30:00,39.0,13.7,30.24,WNW,300,4.0,0.0,35,0.00,,,0.00,0,WeatherTracker,2013-01-17 01:30:00,
2013-01-16 18:40:00,39.0,13.0,30.24,WNW,298,6.0,0.0,34,0.00,,,0.00,0,WeatherTracker,2013-01-17 01:40:00,
2013-01-16 18:50:00,39.4,13.4,30.25,WNW,286,4.0,0.0,34,0.00,,,0.00,0,WeatherTracker,2013-01-17 01:50:00,
2013-01-16 19:00:00,39.2,13.2,30.25,NW,305,1.0,0.0,34,0.00,,,0.00,0,WeatherTracker,2013-01-17 02:00:00,
2013-01-16 19:10:00,38.5,13.9,30.25,NW,307,3.0,0.0,36,0.00,,,0.00,0,WeatherTracker,2013-01-17 02:10:00,
2013-01-16 19:20:00,38.4,13.2,30.25,West,276,0.0,0.0,35,0.00,,,0.00,0,WeatherTracker,2013-01-17 02:20:00,
2013-01-16 19:30:00,38.3,13.1,30.26,NW,319,4.0,0.0,35,0.00,,,0.00,0,WeatherTracker,2013-01-17 02:30:00,
2013-01-16 19:40:00,38.2,16.0,30.26,NW,319,1.0,0.0,40,0.00,,,0.00,0,WeatherTracker,2013-01-17 02:40:00,
2013-01-16 19:50:00,34.6,16.5,30.27,NW,319,2.0,0.0,47,0.00,,,0.00,0,WeatherTracker,2013-01-17 02:50:00,
2013-01-16 20:00:00,33.6,16.0,30.27,SE,126,0.0,0.0,48,0.00,,,0.00,0,WeatherTracker,2013-01-17 03:00:00,
2013-01-16 20:10:00,32.4,15.9,30.27,West,261,0.0,0.0,50,0.00,,,0.00,0,WeatherTracker,2013-01-17 03:10:00,
2013-01-16 20:20:00,31.7,15.7,30.27,WSW,257,3.0,0.0,51,0.00,,,0.00,0,WeatherTracker,2013-01-17 03:20:00,
2013-01-16 20:30:00,30.6,15.1,30.27,WSW,257,1.0,0.0,52,0.00,,,0.00,0,WeatherTracker,2013-01-17 03:30:00,
2013-01-16 20:40:00,29.9,15.3,30.27,WSW,257,0.0,0.0,54,0.00,,,0.00,0,WeatherTracker,2013-01-17 03:40:00,
2013-01-16 20:50:00,29.4,14.4,30.27,WSW,257,1.0,0.0,53,0.00,,,0.00,0,WeatherTracker,2013-01-17 03:50:00,
2013-01-16 21:00:00,30.1,15.1,30.28,WSW,257,0.0,0.0,53,0.00,,,0.00,0,WeatherTracker,2013-01-17 04:00:00,
2013-01-16 21:10:00,29.8,14.8,30.28,WSW,257,0.0,0.0,53,0.00,,,0.00,0,WeatherTracker,2013-01-17 04:10:00,
2013-01-16 21:20:00,29.7,15.5,30.28,WSW,257,0.0,0.0,55,0.00,,,0.00,0,WeatherTracker,2013-01-17 04:20:00,
2013-01-16 21:40:00,28.6,15.7,30.29,WSW,257,1.0,0.0,58,0.00,,,0.00,0,WeatherTracker,2013-01-17 04:40:00,
2013-01-16 21:50:00,27.9,15.1,30.29,WSW,257,3.0,0.0,58,0.00,,,0.00,0,WeatherTracker,2013-01-17 04:50:00,
2013-01-16 22:00:00,27.3,15.3,30.29,WSW,257,1.0,0.0,60,0.00,,,0.00,0,WeatherTracker,2013-01-17 05:00:00,
2013-01-16 22:10:00,27.0,15.0,30.29,WSW,257,2.0,0.0,60,0.00,,,0.00,0,WeatherTracker,2013-01-17 05:10:00,
2013-01-16 22:20:00,26.7,15.1,30.29,WSW,257,2.0,0.0,61,0.00,,,0.00,0,WeatherTracker,2013-01-17 05:20:00,
2013-01-16 22:30:00,26.5,15.3,30.29,WSW,257,1.0,0.0,62,0.00,,,0.00,0,WeatherTracker,2013-01-17 05:30:00,
2013-01-16 22:40:00,26.6,15.4,30.30,WSW,257,1.0,0.0,62,0.00,,,0.00,0,WeatherTracker,2013-01-17 05:40:00,
2013-01-16 22:50:00,26.8,15.6,30.30,WSW,257,2.0,0.0,62,0.00,,,0.00,0,WeatherTracker,2013-01-17 05:50:00,
2013-01-16 23:00:00,26.8,15.6,30.30,WSW,257,2.0,0.0,62,0.00,,,0.00,0,WeatherTracker,2013-01-17 06:00:00,
2013-01-16 23:10:00,26.8,15.9,30.31,WSW,257,2.0,0.0,63,0.00,,,0.00,0,WeatherTracker,2013-01-17 06:10:00,
2013-01-16 23:21:00,26.7,15.5,30.31,WSW,257,0.0,0.0,62,0.00,,,0.00,0,WeatherTracker,2013-01-17 06:21:00,
2013-01-16 23:30:00,26.9,15.3,30.31,WSW,257,2.0,0.0,61,0.00,,,0.00,0,WeatherTracker,2013-01-17 06:30:00,
2013-01-16 23:40:00,26.4,15.5,30.32,WSW,257,1.0,0.0,63,0.00,,,0.00,0,WeatherTracker,2013-01-17 06:40:00,
2013-01-16 23:50:00,26.6,15.4,30.32,WSW,257,3.0,0.0,62,0.00,,,0.00,0,WeatherTracker,2013-01-17 06:50:00,